Time;durP1;ratioP1;P1;durP2;ratioP2;P2;SDS_P1;SDS_P2;PMS_P1;PMS_P2;Temp;Humidity;BMP_temperature;BMP_pressure;BME280_temperature;BME280_humidity;BME280_pressure;Samples;Min_cycle;Max_cycle;Signal;HPM_P1;HPM_P2
2023/10/07 00:02:30;;;;;;;;;;;;;;;-140.72;100.00;52715.53;5068253;28;19920;-70
2023/10/07 00:04:58;;;;;;;;;;;;;;;-140.72;100.00;52754.09;5071562;28;20011;-70
2023/10/07 00:07:30;;;;;;;;;;;;;;;-140.72;100.00;52764.25;5078536;28;19921;-70
2023/10/07 00:09:55;;;;;;;;;;;;;;;-140.72;100.00;52766.25;5071590;28;19938;-70
2023/10/07 00:12:20;;;;;;;;;;;;;;;-140.72;100.00;52735.81;5068257;28;20370;-70
2023/10/07 00:14:45;;;;;;;;;;;;;;;-140.72;100.00;52739.88;5065202;28;19921;-71
2023/10/07 00:17:17;;;;;;;;;;;;;;;-140.72;100.00;52745.97;5064752;28;19921;-70
2023/10/07 00:19:46;;;;;;;;;;;;;;;-140.72;100.00;52756.13;5070309;28;20329;-70
2023/10/07 00:22:13;;;;;;;;;;;;;;;-140.72;100.00;52748.00;5067300;28;20334;-70
2023/10/07 00:24:43;;;;;;;;;;;;;;;-140.72;100.00;52717.56;5065184;28;19920;-70
2023/10/07 00:27:26;;;;;;;;;;;;;;;-140.72;100.00;52707.41;5072749;28;19925;-70
2023/10/07 00:29:54;;;;;;;;;;;;;;;-140.72;100.00;52725.69;5068225;28;19920;-70
2023/10/07 00:32:31;;;;;;;;;;;;;;;-140.72;100.00;52719.59;5069780;28;19943;-70
2023/10/07 00:34:59;;;;;;;;;;;;;;;-140.72;100.00;52776.41;5072510;28;19924;-70
2023/10/07 00:37:25;;;;;;;;;;;;;;;-140.72;100.00;52739.88;5068009;28;19981;-70
2023/10/07 00:39:52;;;;;;;;;;;;;;;-140.72;100.00;52739.88;5064082;28;19973;-70
2023/10/07 00:42:18;;;;;;;;;;;;;;;-140.72;100.00;52752.06;5073499;28;19920;-71
2023/10/07 00:44:47;;;;;;;;;;;;;;;-140.72;100.00;52723.66;5085938;28;19933;-71
2023/10/07 00:47:12;;;;;;;;;;;;;;;-140.72;100.00;52745.97;5066557;28;19927;-70
2023/10/07 00:52:27;;;;;;;;;;;;;;;-140.72;100.00;52737.84;5075883;28;19920;-70
2023/10/07 00:54:59;;;;;;;;;;;;;;;-140.72;100.00;52719.59;5069143;28;21459;-70
2023/10/07 00:57:29;;;;;;;;;;;;;;;-140.72;100.00;52754.09;5069042;28;19920;-70
2023/10/07 00:59:57;;;;;;;;;;;;;;;-140.72;100.00;52748.00;5064045;28;19925;-71
2023/10/07 01:02:30;;;;;;;;;;;;;;;-140.72;100.00;52735.81;5069765;28;19927;-70
2023/10/07 01:05:06;;;;;;;;;;;;;;;-140.72;100.00;52695.25;5070693;28;19925;-70
2023/10/07 01:07:34;;;;;;;;;;;;;;;-140.72;100.00;52723.66;5065006;28;19967;-70
2023/10/07 01:12:39;;;;;;;;;;;;;;;-140.72;100.00;52739.88;5063630;28;20321;-70
2023/10/07 01:15:17;;;;;;;;;;;;;;;-140.72;100.00;52735.81;5066065;28;19935;-71
2023/10/07 01:17:43;;;;;;;;;;;;;;;-140.72;100.00;52723.66;5072961;28;19935;-70
2023/10/07 01:20:09;;;;;;;;;;;;;;;-140.72;100.00;52754.09;5075198;28;19927;-71
2023/10/07 01:22:37;;;;;;;;;;;;;;;-140.72;100.00;52750.03;5066957;28;19921;-70
2023/10/07 01:25:10;;;;;;;;;;;;;;;-140.72;100.00;52691.19;5068678;28;19924;-70
2023/10/07 01:27:49;;;;;;;;;;;;;;;-140.72;100.00;52748.00;5071646;28;19924;-71
2023/10/07 01:30:17;;;;;;;;;;;;;;;-140.72;100.00;52691.19;5075354;28;19947;-71
2023/10/07 01:32:53;;;;;;;;;;;;;;;-140.72;100.00;52697.28;5060804;28;19928;-71
2023/10/07 01:35:25;;;;;;;;;;;;;;;-140.72;100.00;52739.88;5062946;28;19927;-71
2023/10/07 01:37:59;;;;;;;;;;;;;;;-140.72;100.00;52754.09;5069840;28;19921;-71
2023/10/07 01:40:32;;;;;;;;;;;;;;;-140.72;100.00;52715.53;5070540;28;19917;-71
2023/10/07 01:42:57;;;;;;;;;;;;;;;-140.72;100.00;52754.09;5063951;28;19966;-71
2023/10/07 01:45:23;;;;;;;;;;;;;;;-140.72;100.00;52739.88;5063660;28;19924;-71
2023/10/07 01:47:49;;;;;;;;;;;;;;;-140.72;100.00;52739.88;5073949;28;19924;-71
2023/10/07 01:50:18;;;;;;;;;;;;;;;-140.72;100.00;52719.59;5072616;28;19927;-71
2023/10/07 01:52:46;;;;;;;;;;;;;;;-140.72;100.00;52693.22;5069446;28;19966;-70
2023/10/07 01:55:13;;;;;;;;;;;;;;;-140.72;100.00;52758.16;5068074;28;19949;-71
2023/10/07 01:57:40;;;;;;;;;;;;;;;-140.72;100.00;52703.34;5073395;28;19924;-71
2023/10/07 02:00:07;;;;;;;;;;;;;;;-140.72;100.00;52711.47;5069272;28;19958;-71
2023/10/07 02:02:32;;;;;;;;;;;;;;;-140.72;100.00;52756.13;5073065;28;19928;-71
2023/10/07 02:04:58;;;;;;;;;;;;;;;-140.72;100.00;52731.75;5062649;28;19927;-71
2023/10/07 02:07:24;;;;;;;;;;;;;;;-140.72;100.00;52733.78;5070305;28;19966;-71
2023/10/07 02:09:54;;;;;;;;;;;;;;;-140.72;100.00;52752.06;5070172;28;19956;-71
2023/10/07 02:12:19;;;;;;;;;;;;;;;-140.72;100.00;52729.75;5072380;28;20371;-70
2023/10/07 02:14:45;;;;;;;;;;;;;;;-140.72;100.00;52745.97;5067361;28;19947;-70
2023/10/07 02:17:13;;;;;;;;;;;;;;;-140.72;100.00;52729.75;5067983;28;19921;-70
2023/10/07 02:19:41;;;;;;;;;;;;;;;-140.72;100.00;52709.44;5069543;28;19920;-71
2023/10/07 02:22:22;;;;;;;;;;;;;;;-140.72;100.00;52735.81;5067571;28;19928;-73
2023/10/07 02:24:53;;;;;;;;;;;;;;;-140.72;100.00;52670.88;5069167;28;20396;-71
2023/10/07 02:27:19;;;;;;;;;;;;;;;-140.72;100.00;52739.88;5070431;28;19920;-71
2023/10/07 02:29:44;;;;;;;;;;;;;;;-140.72;100.00;52735.81;5066322;28;19928;-71
2023/10/07 02:32:13;;;;;;;;;;;;;;;-140.72;100.00;52743.94;5069270;28;20374;-71
2023/10/07 02:34:54;;;;;;;;;;;;;;;-140.72;100.00;52756.13;5073448;28;19927;-71
2023/10/07 02:37:25;;;;;;;;;;;;;;;-140.72;100.00;52756.13;5074331;28;19923;-71
2023/10/07 02:39:56;;;;;;;;;;;;;;;-140.72;100.00;52743.94;5068875;28;19928;-71
2023/10/07 02:42:21;;;;;;;;;;;;;;;-140.72;100.00;52752.06;5074614;28;19959;-71
2023/10/07 02:44:54;;;;;;;;;;;;;;;-140.72;100.00;52774.38;5074964;28;20345;-71
2023/10/07 02:47:19;;;;;;;;;;;;;;;-140.72;100.00;52776.41;5074170;28;19960;-71
2023/10/07 02:49:49;;;;;;;;;;;;;;;-140.72;100.00;52772.34;5074663;28;20431;-70
2023/10/07 02:52:16;;;;;;;;;;;;;;;-140.72;100.00;52756.13;5079968;28;19921;-71
2023/10/07 02:54:42;;;;;;;;;;;;;;;-140.72;100.00;52741.91;5074460;28;19955;-71
2023/10/07 02:57:24;;;;;;;;;;;;;;;-140.72;100.00;52762.22;5067467;28;20341;-71
2023/10/07 02:59:57;;;;;;;;;;;;;;;-140.72;100.00;52776.41;5074501;28;19916;-71
2023/10/07 03:02:37;;;;;;;;;;;;;;;-140.72;100.00;52735.81;5070862;28;20097;-71
2023/10/07 03:05:13;;;;;;;;;;;;;;;-140.72;100.00;52727.72;5063030;28;19939;-71
2023/10/07 03:07:41;;;;;;;;;;;;;;;-140.72;100.00;52743.94;5073426;28;19928;-71
2023/10/07 03:10:32;;;;;;;;;;;;;;;-140.72;100.00;52715.53;5072922;28;19921;-71
2023/10/07 03:12:58;;;;;;;;;;;;;;;-140.72;100.00;52752.06;5062857;28;20326;-71
2023/10/07 03:18:01;;;;;;;;;;;;;;;-140.72;100.00;52752.06;5068518;28;19932;-71
2023/10/07 03:20:31;;;;;;;;;;;;;;;-140.72;100.00;52764.25;5074085;28;19917;-71
2023/10/07 03:23:17;;;;;;;;;;;;;;;-140.72;100.00;52741.91;5072397;28;19956;-71
2023/10/07 03:28:34;;;;;;;;;;;;;;;-140.72;100.00;52768.28;5077586;28;19927;-71
2023/10/07 03:31:00;;;;;;;;;;;;;;;-140.72;100.00;52758.16;5071168;28;19917;-71
2023/10/07 03:33:45;;;;;;;;;;;;;;;-140.72;100.00;52727.72;5066894;28;19931;-71
2023/10/07 03:41:35;;;;;;;;;;;;;;;-140.72;100.00;52735.81;5074597;28;19924;-73
2023/10/07 03:44:00;;;;;;;;;;;;;;;-140.72;100.00;52762.22;5065001;28;20325;-71
2023/10/07 03:46:27;;;;;;;;;;;;;;;-140.72;100.00;52737.84;5074048;28;20052;-71
2023/10/07 03:48:56;;;;;;;;;;;;;;;-140.72;100.00;52723.66;5076337;28;19920;-71
2023/10/07 03:51:30;;;;;;;;;;;;;;;-140.72;100.00;52810.91;5073089;28;20752;-71
2023/10/07 03:54:00;;;;;;;;;;;;;;;-140.72;100.00;52729.75;5064397;28;19929;-71
2023/10/07 03:56:26;;;;;;;;;;;;;;;-140.72;100.00;52752.06;5071490;28;19970;-71
2023/10/07 03:58:51;;;;;;;;;;;;;;;-140.72;100.00;52737.84;5065246;28;20346;-71
2023/10/07 04:01:22;;;;;;;;;;;;;;;-140.72;100.00;52794.69;5069916;28;20418;-70
2023/10/07 04:03:49;;;;;;;;;;;;;;;-140.72;100.00;52760.19;5069590;28;19920;-71
2023/10/07 04:06:16;;;;;;;;;;;;;;;-140.72;100.00;52760.19;5068127;28;19956;-71
2023/10/07 04:08:41;;;;;;;;;;;;;;;-140.72;100.00;52741.91;5067108;28;19943;-73
2023/10/07 04:11:16;;;;;;;;;;;;;;;-140.72;100.00;52735.81;5072683;28;20386;-71
2023/10/07 04:13:43;;;;;;;;;;;;;;;-140.72;100.00;52748.00;5073132;28;19979;-71
2023/10/07 04:16:22;;;;;;;;;;;;;;;-140.72;100.00;52768.28;5070873;28;19924;-71
2023/10/07 04:18:47;;;;;;;;;;;;;;;-140.72;100.00;52739.88;5075937;28;20394;-71
2023/10/07 04:21:13;;;;;;;;;;;;;;;-140.72;100.00;52731.75;5077043;28;19916;-71
2023/10/07 04:23:43;;;;;;;;;;;;;;;-140.72;100.00;52784.53;5078618;28;20088;-71
2023/10/07 04:26:10;;;;;;;;;;;;;;;-140.72;100.00;52731.75;5076568;28;19920;-71
2023/10/07 04:28:36;;;;;;;;;;;;;;;-140.72;100.00;52717.56;5074294;28;19974;-71
2023/10/07 04:31:09;;;;;;;;;;;;;;;-140.72;100.00;52770.31;5069707;28;20011;-70
2023/10/07 04:33:40;;;;;;;;;;;;;;;-140.72;100.00;52770.31;5073026;28;20320;-71
2023/10/07 04:36:13;;;;;;;;;;;;;;;-140.72;100.00;52727.72;5073259;28;19928;-71
2023/10/07 04:38:39;;;;;;;;;;;;;;;-140.72;100.00;52784.53;5072839;28;19924;-71
2023/10/07 04:44:20;;;;;;;;;;;;;;;-140.72;100.00;52758.16;5078562;28;20375;-71
2023/10/07 04:46:55;;;;;;;;;;;;;;;-140.72;100.00;52750.03;5075135;28;19978;-71
2023/10/07 04:49:23;;;;;;;;;;;;;;;-140.72;100.00;52739.88;5076181;28;19927;-71
2023/10/07 04:51:54;;;;;;;;;;;;;;;-140.72;100.00;52727.72;5066718;28;20010;-71
2023/10/07 04:54:20;;;;;;;;;;;;;;;-140.72;100.00;52760.19;5062353;28;20345;-75
2023/10/07 04:56:48;;;;;;;;;;;;;;;-140.72;100.00;52756.13;5070488;28;19932;-75
2023/10/07 04:59:15;;;;;;;;;;;;;;;-140.72;100.00;52758.16;5074216;28;19916;-77
2023/10/07 05:04:34;;;;;;;;;;;;;;;-140.72;100.00;52772.34;5070843;28;19927;-75
2023/10/07 05:07:00;;;;;;;;;;;;;;;-140.72;100.00;52766.25;5075603;28;20366;-70
2023/10/07 05:09:26;;;;;;;;;;;;;;;-140.72;100.00;52745.97;5074366;28;19932;-69
2023/10/07 05:11:51;;;;;;;;;;;;;;;-140.72;100.00;52719.59;5072734;28;19965;-70
2023/10/07 05:14:22;;;;;;;;;;;;;;;-140.72;100.00;52776.41;5071486;28;20360;-70
2023/10/07 05:16:47;;;;;;;;;;;;;;;-140.72;100.00;52766.25;5068724;28;19995;-71
2023/10/07 05:19:19;;;;;;;;;;;;;;;-140.72;100.00;52752.06;5075353;28;20041;-71
2023/10/07 05:24:38;;;;;;;;;;;;;;;-140.72;100.00;52774.38;5072848;28;19974;-70
2023/10/07 05:27:04;;;;;;;;;;;;;;;-140.72;100.00;52748.00;5075087;28;19940;-70
2023/10/07 05:29:29;;;;;;;;;;;;;;;-140.72;100.00;52772.34;5071496;28;19925;-70
2023/10/07 05:31:56;;;;;;;;;;;;;;;-140.72;100.00;52762.22;5084714;28;19920;-70
2023/10/07 05:34:21;;;;;;;;;;;;;;;-140.72;100.00;52723.66;5086338;28;19917;-70
2023/10/07 05:36:47;;;;;;;;;;;;;;;-140.72;100.00;52760.19;5082299;28;19943;-71
2023/10/07 05:39:15;;;;;;;;;;;;;;;-140.72;100.00;52754.09;5075900;28;20287;-71
2023/10/07 05:41:41;;;;;;;;;;;;;;;-140.72;100.00;52723.66;5076122;28;19920;-70
2023/10/07 05:44:07;;;;;;;;;;;;;;;-140.72;100.00;52784.53;5074050;28;19917;-71
2023/10/07 05:46:32;;;;;;;;;;;;;;;-140.72;100.00;52745.97;5081666;28;20305;-70
2023/10/07 05:48:59;;;;;;;;;;;;;;;-140.72;100.00;52725.69;5072927;28;20806;-71
2023/10/07 05:51:24;;;;;;;;;;;;;;;-140.72;100.00;52731.75;5071789;28;19929;-72
2023/10/07 05:53:51;;;;;;;;;;;;;;;-140.72;100.00;52760.19;5074810;28;20090;-71
2023/10/07 05:56:17;;;;;;;;;;;;;;;-140.72;100.00;52727.72;5062800;28;20003;-70
2023/10/07 05:58:45;;;;;;;;;;;;;;;-140.72;100.00;52760.19;5083628;28;19947;-70
2023/10/07 06:01:11;;;;;;;;;;;;;;;-140.72;100.00;52776.41;5067661;28;19921;-70
2023/10/07 06:03:37;;;;;;;;;;;;;;;-140.72;100.00;52760.19;5075711;28;19927;-70
2023/10/07 06:06:04;;;;;;;;;;;;;;;-140.72;100.00;52756.13;5066720;28;19921;-72
2023/10/07 06:08:30;;;;;;;;;;;;;;;-140.72;100.00;52792.66;5069698;28;20023;-71
2023/10/07 06:10:56;;;;;;;;;;;;;;;-140.72;100.00;52748.00;5068449;28;20141;-71
2023/10/07 06:13:22;;;;;;;;;;;;;;;-140.72;100.00;52739.88;5070609;28;19916;-75
2023/10/07 06:15:47;;;;;;;;;;;;;;;-140.72;100.00;52778.44;5072977;28;19923;-70
2023/10/07 06:18:13;;;;;;;;;;;;;;;-140.72;100.00;52756.13;5074664;28;19920;-71
2023/10/07 06:20:38;;;;;;;;;;;;;;;-140.72;100.00;52739.88;5069878;28;20015;-70
2023/10/07 06:23:16;;;;;;;;;;;;;;;-140.72;100.00;52745.97;5070539;28;19920;-71
2023/10/07 06:25:48;;;;;;;;;;;;;;;-140.72;100.00;52752.06;5075193;28;20066;-71
2023/10/07 06:28:22;;;;;;;;;;;;;;;-140.72;100.00;52754.09;5071945;28;20022;-74
2023/10/07 06:30:49;;;;;;;;;;;;;;;-140.72;100.00;52770.31;5074503;28;19921;-71
2023/10/07 06:33:14;;;;;;;;;;;;;;;-140.72;100.00;52812.94;5077209;28;19944;-71
2023/10/07 06:35:39;;;;;;;;;;;;;;;-140.72;100.00;52780.47;5077421;28;20287;-73
2023/10/07 06:38:05;;;;;;;;;;;;;;;-140.72;100.00;52743.94;5076295;28;20301;-71
2023/10/07 06:40:32;;;;;;;;;;;;;;;-140.72;100.00;52760.19;5072528;28;20318;-71
2023/10/07 06:42:58;;;;;;;;;;;;;;;-140.72;100.00;52796.72;5073210;28;19923;-71
2023/10/07 06:45:36;;;;;;;;;;;;;;;-140.72;100.00;52780.47;5074374;28;20411;-71
2023/10/07 06:48:05;;;;;;;;;;;;;;;-140.72;100.00;52768.28;5075354;28;19924;-71
2023/10/07 06:50:31;;;;;;;;;;;;;;;-140.72;100.00;52725.69;5072166;28;19921;-71
2023/10/07 06:52:56;;;;;;;;;;;;;;;-140.72;100.00;52741.91;5066962;28;19928;-71
2023/10/07 06:55:22;;;;;;;;;;;;;;;-140.72;100.00;52788.59;5074384;28;20355;-70
2023/10/07 06:57:48;;;;;;;;;;;;;;;-140.72;100.00;52784.53;5070148;28;19959;-71
2023/10/07 07:00:23;;;;;;;;;;;;;;;-140.72;100.00;52739.88;5078494;28;19921;-70
2023/10/07 07:02:54;;;;;;;;;;;;;;;-140.72;100.00;52758.16;5073191;28;19920;-70
2023/10/07 07:05:19;;;;;;;;;;;;;;;-140.72;100.00;52792.66;5073086;28;19920;-70
2023/10/07 07:07:44;;;;;;;;;;;;;;;-140.72;100.00;52737.84;5073781;28;19928;-70
2023/10/07 07:10:16;;;;;;;;;;;;;;;-140.72;100.00;52733.78;5069459;28;20330;-75
2023/10/07 07:12:41;;;;;;;;;;;;;;;-140.72;100.00;52784.53;5074690;28;20375;-78
2023/10/07 07:15:08;;;;;;;;;;;;;;;-140.72;100.00;52741.91;5074273;28;19931;-75
2023/10/07 07:22:37;;;;;;;;;;;;;;;-140.72;100.00;52758.16;5072231;28;20000;-72
2023/10/07 07:27:48;;;;;;;;;;;;;;;-140.72;100.00;52788.59;5072662;28;19955;-72
2023/10/07 07:30:29;;;;;;;;;;;;;;;-140.72;100.00;52760.19;5085749;28;19917;-74
2023/10/07 07:33:06;;;;;;;;;;;;;;;-140.72;100.00;52723.66;5071507;28;19920;-73
2023/10/07 07:35:39;;;;;;;;;;;;;;;-140.72;100.00;52778.44;5071265;28;19928;-75
2023/10/07 07:38:26;;;;;;;;;;;;;;;-140.72;100.00;52798.72;5060699;28;20298;-69
2023/10/07 07:43:49;;;;;;;;;;;;;;;-140.72;100.00;52776.41;5066793;28;19927;-71
2023/10/07 07:48:43;;;;;;;;;;;;;;;-140.72;100.00;52727.72;5067898;28;19920;-71
2023/10/07 07:51:09;;;;;;;;;;;;;;;-140.72;100.00;52764.25;5071442;28;19927;-71
2023/10/07 07:53:35;;;;;;;;;;;;;;;-140.72;100.00;52697.28;5068206;28;20314;-71
2023/10/07 07:56:00;;;;;;;;;;;;;;;-140.72;100.00;52735.81;5060168;28;19931;-71
2023/10/07 07:58:25;;;;;;;;;;;;;;;-140.72;100.00;52713.50;5068388;28;20100;-71
2023/10/07 08:01:04;;;;;;;;;;;;;;;-140.72;100.00;52717.56;5069424;28;19924;-71
2023/10/07 08:03:29;;;;;;;;;;;;;;;-140.72;100.00;52681.03;5061968;28;19928;-71
2023/10/07 08:05:55;;;;;;;;;;;;;;;-140.72;100.00;52699.31;5063923;28;19935;-71
2023/10/07 08:08:24;;;;;;;;;;;;;;;-140.72;100.00;52735.81;5062814;28;19960;-71
2023/10/07 08:10:50;;;;;;;;;;;;;;;-140.72;100.00;52721.63;5060374;28;19971;-71
2023/10/07 08:13:23;;;;;;;;;;;;;;;-140.72;100.00;52756.13;5065615;28;19931;-71
2023/10/07 08:15:48;;;;;;;;;;;;;;;-140.72;100.00;52707.41;5063528;28;19966;-71
2023/10/07 08:18:14;;;;;;;;;;;;;;;-140.72;100.00;52693.22;5073700;28;19920;-70
2023/10/07 08:20:44;;;;;;;;;;;;;;;-140.72;100.00;52711.47;5073566;28;19924;-69
2023/10/07 08:23:21;;;;;;;;;;;;;;;-140.72;100.00;52674.94;5077606;28;19923;-70
2023/10/07 08:25:47;;;;;;;;;;;;;;;-140.72;100.00;52713.50;5075011;28;19921;-70
2023/10/07 08:30:47;;;;;;;;;;;;;;;-140.72;100.00;52670.88;5074194;28;19917;-70
2023/10/07 08:33:14;;;;;;;;;;;;;;;-140.72;100.00;52685.09;5073163;28;20468;-70
2023/10/07 08:35:43;;;;;;;;;;;;;;;-140.72;100.00;52727.72;5073442;28;19920;-70
2023/10/07 08:38:20;;;;;;;;;;;;;;;-140.72;100.00;52711.47;5073598;28;19970;-70
2023/10/07 08:40:49;;;;;;;;;;;;;;;-140.72;100.00;52670.88;5080814;28;19943;-70
2023/10/07 08:43:18;;;;;;;;;;;;;;;-140.72;100.00;52709.44;5062469;28;19916;-70
2023/10/07 08:45:45;;;;;;;;;;;;;;;-140.72;100.00;52685.09;5063371;28;19920;-70
2023/10/07 08:48:16;;;;;;;;;;;;;;;-140.72;100.00;52695.25;5071637;28;19927;-70
2023/10/07 08:50:58;;;;;;;;;;;;;;;-140.72;100.00;52666.84;5059242;28;20003;-70
2023/10/07 08:53:24;;;;;;;;;;;;;;;-140.72;100.00;52632.34;5068511;28;19927;-71
2023/10/07 08:56:00;;;;;;;;;;;;;;;-140.72;100.00;52672.91;5069636;28;19924;-72
2023/10/07 08:58:28;;;;;;;;;;;;;;;-140.72;100.00;52660.75;5069274;28;20272;-70
2023/10/07 09:00:55;;;;;;;;;;;;;;;-140.72;100.00;52687.13;5066320;28;19971;-70
2023/10/07 09:03:26;;;;;;;;;;;;;;;-140.72;100.00;52658.72;5068819;28;19920;-70
2023/10/07 09:05:51;;;;;;;;;;;;;;;-140.72;100.00;52630.31;5073673;28;20336;-69
2023/10/07 09:08:16;;;;;;;;;;;;;;;-140.72;100.00;52670.88;5074142;28;19981;-70
2023/10/07 09:10:45;;;;;;;;;;;;;;;-140.72;100.00;52679.00;5074070;28;20395;-70
2023/10/07 09:13:12;;;;;;;;;;;;;;;-140.72;100.00;52674.94;5072892;28;19996;-69
2023/10/07 09:15:42;;;;;;;;;;;;;;;-140.72;100.00;52666.84;5066851;28;19924;-69
2023/10/07 09:18:10;;;;;;;;;;;;;;;-140.72;100.00;52660.75;5073882;28;19921;-69
2023/10/07 09:20:45;;;;;;;;;;;;;;;-140.72;100.00;52670.88;5074639;28;19931;-69
2023/10/07 09:23:19;;;;;;;;;;;;;;;-140.72;100.00;52674.94;5073056;28;19920;-70
2023/10/07 09:25:50;;;;;;;;;;;;;;;-140.72;100.00;52707.41;5072013;28;19945;-70
2023/10/07 09:28:18;;;;;;;;;;;;;;;-140.72;100.00;52652.63;5068658;28;19932;-70
2023/10/07 09:33:13;;;;;;;;;;;;;;;-140.72;100.00;52666.84;5073219;28;19924;-69
2023/10/07 09:35:42;;;;;;;;;;;;;;;-140.72;100.00;52634.38;5073556;28;20017;-69
2023/10/07 09:38:12;;;;;;;;;;;;;;;-140.72;100.00;52648.56;5073035;28;20318;-69
2023/10/07 09:43:25;;;;;;;;;;;;;;;-140.72;100.00;52654.66;5072037;28;20357;-70
2023/10/07 09:45:58;;;;;;;;;;;;;;;-140.72;100.00;52628.28;5073540;28;20007;-70
2023/10/07 09:48:31;;;;;;;;;;;;;;;-140.72;100.00;52648.56;5071212;28;19928;-70
2023/10/07 09:50:58;;;;;;;;;;;;;;;-140.72;100.00;52658.72;5077457;28;19925;-70
2023/10/07 09:53:39;;;;;;;;;;;;;;;-140.72;100.00;52610.00;5070742;28;19921;-70
2023/10/07 09:56:11;;;;;;;;;;;;;;;-140.72;100.00;52660.75;5067683;28;19924;-71
2023/10/07 09:58:59;;;;;;;;;;;;;;;-140.72;100.00;52634.38;5072822;28;20007;-70
2023/10/07 10:01:40;;;;;;;;;;;;;;;-140.72;100.00;52658.72;5074507;28;20381;-70
2023/10/07 10:04:14;;;;;;;;;;;;;;;-140.72;100.00;52638.41;5070054;28;19924;-70
2023/10/07 10:06:53;;;;;;;;;;;;;;;-140.72;100.00;52626.25;5068912;28;20000;-70
2023/10/07 10:09:27;;;;;;;;;;;;;;;-140.72;100.00;52634.38;5070620;28;20405;-70
2023/10/07 10:12:17;;;;;;;;;;;;;;;-140.72;100.00;52616.09;5069199;28;19935;-70
2023/10/07 10:14:56;;;;;;;;;;;;;;;-140.72;100.00;52622.19;5074083;28;20010;-70
2023/10/07 10:17:30;;;;;;;;;;;;;;;-140.72;100.00;52626.25;5072548;28;19921;-70
2023/10/07 10:20:00;;;;;;;;;;;;;;;-140.72;100.00;52614.06;5073333;28;20015;-70
2023/10/07 10:22:26;;;;;;;;;;;;;;;-140.72;100.00;52642.47;5073883;28;19924;-70
2023/10/07 10:24:55;;;;;;;;;;;;;;;-140.72;100.00;52581.59;5073558;28;20259;-70
2023/10/07 10:27:20;;;;;;;;;;;;;;;-140.72;100.00;52628.28;5063856;28;19920;-70
2023/10/07 10:29:52;;;;;;;;;;;;;;;-140.72;100.00;52607.97;5062841;28;19932;-70
2023/10/07 10:32:30;;;;;;;;;;;;;;;-140.72;100.00;52614.06;5078372;28;20343;-70
2023/10/07 10:34:59;;;;;;;;;;;;;;;-140.72;100.00;52603.94;5082448;28;19920;-71
2023/10/07 10:37:26;;;;;;;;;;;;;;;-140.72;100.00;52589.72;5066065;28;19921;-70
2023/10/07 10:39:53;;;;;;;;;;;;;;;-140.72;100.00;52603.94;5073972;28;19916;-71
2023/10/07 10:42:19;;;;;;;;;;;;;;;-140.72;100.00;52555.22;5069085;28;19924;-70
2023/10/07 10:44:46;;;;;;;;;;;;;;;-140.72;100.00;52571.47;5077201;28;19932;-70
2023/10/07 10:47:15;;;;;;;;;;;;;;;-140.72;100.00;52520.72;5066016;28;20436;-70
2023/10/07 10:49:43;;;;;;;;;;;;;;;-140.72;100.00;52490.28;5073936;28;19928;-71
2023/10/07 10:52:10;;;;;;;;;;;;;;;-140.72;100.00;52443.63;5074397;28;20014;-70
2023/10/07 10:54:36;;;;;;;;;;;;;;;-140.72;100.00;52488.25;5072099;28;20438;-69
2023/10/07 10:57:05;;;;;;;;;;;;;;;-140.72;100.00;52423.31;5073086;28;20414;-70
2023/10/07 10:59:40;;;;;;;;;;;;;;;-140.72;100.00;52409.13;5073301;28;20306;-71
2023/10/07 11:02:05;;;;;;;;;;;;;;;-140.72;100.00;52403.03;5071396;28;19925;-70
2023/10/07 11:04:32;;;;;;;;;;;;;;;-140.72;100.00;52433.47;5067211;28;19920;-70
2023/10/07 11:06:58;;;;;;;;;;;;;;;-140.72;100.00;52378.69;5074582;28;19920;-70
2023/10/07 11:09:26;;;;;;;;;;;;;;;-140.72;100.00;52370.56;5077155;28;19928;-70
2023/10/07 11:11:53;;;;;;;;;;;;;;;-140.72;91.74;52386.81;5066859;28;19921;-70
2023/10/07 11:14:20;;;;;;;;;;;;;;;-140.72;73.13;52336.06;5071037;28;20382;-70
2023/10/07 11:16:46;;;;;;;;;;;;;;;-140.72;52.58;52342.16;5061302;28;19932;-70
2023/10/07 11:19:12;;;;;;;;;;;;;;;-140.72;36.63;52421.28;5072455;28;19917;-71
2023/10/07 11:21:45;;;;;;;;;;;;;;;-140.72;61.19;52488.25;5060928;28;19921;-70
2023/10/07 11:24:21;;;;;;;;;;;;;;;-140.72;100.00;52476.09;5072078;28;19927;-71
2023/10/07 11:26:49;;;;;;;;;;;;;;;-140.72;100.00;52411.16;5070940;28;19929;-69
2023/10/07 11:29:15;;;;;;;;;;;;;;;-140.72;87.35;52392.88;5071957;28;19920;-70
2023/10/07 11:31:41;;;;;;;;;;;;;;;-140.72;80.72;52417.25;5065760;28;19970;-70
2023/10/07 11:34:06;;;;;;;;;;;;;;;-140.72;78.14;52439.56;5070033;28;19962;-71
2023/10/07 11:36:48;;;;;;;;;;;;;;;-140.72;80.81;52447.69;5069238;28;19967;-71
2023/10/07 11:39:13;;;;;;;;;;;;;;;-140.72;71.62;52382.75;5064736;28;20264;-71
2023/10/07 11:41:40;;;;;;;;;;;;;;;-140.72;94.26;52457.81;5072931;28;19927;-71
2023/10/07 11:44:05;;;;;;;;;;;;;;;-140.72;77.32;52451.72;5073728;28;19943;-71
2023/10/07 11:46:30;;;;;;;;;;;;;;;-140.72;81.96;52506.53;5072600;28;20378;-71
2023/10/07 11:48:56;;;;;;;;;;;;;;;-140.72;74.82;52437.53;5071371;28;19981;-71
2023/10/07 11:51:23;;;;;;;;;;;;;;;-140.72;62.72;52461.88;5069531;28;19928;-71
2023/10/07 11:53:49;;;;;;;;;;;;;;;-140.72;66.76;52403.03;5069475;28;19927;-71
2023/10/07 11:56:14;;;;;;;;;;;;;;;-140.72;60.75;52492.31;5068678;28;19921;-71
2023/10/07 11:58:41;;;;;;;;;;;;;;;-140.72;95.71;52508.56;5074598;28;19937;-71
2023/10/07 12:01:07;;;;;;;;;;;;;;;-140.72;100.00;52488.25;5074036;28;20079;-71
2023/10/07 12:03:33;;;;;;;;;;;;;;;-140.72;100.00;52536.97;5073015;28;20011;-70
2023/10/07 12:05:58;;;;;;;;;;;;;;;-140.72;100.00;52536.97;5075687;28;20349;-71
2023/10/07 12:08:24;;;;;;;;;;;;;;;-140.72;100.00;52553.19;5067281;28;19956;-71
2023/10/07 12:10:50;;;;;;;;;;;;;;;-140.72;100.00;52599.88;5071595;28;19974;-71
2023/10/07 12:13:15;;;;;;;;;;;;;;;-140.72;100.00;52545.06;5064888;28;20344;-71
2023/10/07 12:15:42;;;;;;;;;;;;;;;-140.72;100.00;52549.13;5071488;28;20302;-71
2023/10/07 12:18:12;;;;;;;;;;;;;;;-140.72;100.00;52524.78;5067164;28;19921;-73
2023/10/07 12:20:38;;;;;;;;;;;;;;;-140.72;100.00;52551.16;5070666;28;20019;-71
2023/10/07 12:23:03;;;;;;;;;;;;;;;-140.72;100.00;52528.84;5066404;28;20016;-70
2023/10/07 12:25:30;;;;;;;;;;;;;;;-140.72;100.00;52494.34;5071705;28;19922;-71
2023/10/07 12:27:56;;;;;;;;;;;;;;;-140.72;100.00;52463.91;5072169;28;20379;-71
2023/10/07 12:30:22;;;;;;;;;;;;;;;-140.72;100.00;52394.91;5065268;28;19928;-71
2023/10/07 12:32:51;;;;;;;;;;;;;;;-140.72;100.00;52376.66;5067506;28;19921;-71
2023/10/07 12:35:17;;;;;;;;;;;;;;;-140.72;35.44;52346.22;5064322;28;19924;-71
2023/10/07 12:37:46;;;;;;;;;;;;;;;-140.72;0.00;52398.97;5067820;28;19917;-71
2023/10/07 12:40:13;;;;;;;;;;;;;;;-140.72;5.90;52472.03;5074842;28;20015;-70
2023/10/07 12:42:39;;;;;;;;;;;;;;;-140.72;90.34;52465.94;5073776;28;20011;-70
2023/10/07 12:45:05;;;;;;;;;;;;;;;-140.72;100.00;52467.97;5074111;28;19924;-70
2023/10/07 12:47:31;;;;;;;;;;;;;;;-140.72;100.00;52447.69;5074439;28;20409;-71
2023/10/07 12:49:56;;;;;;;;;;;;;;;-140.72;73.51;52285.34;5075743;28;20878;-71
2023/10/07 12:52:23;;;;;;;;;;;;;;;-140.72;0.00;52263.03;5075123;28;20354;-71
2023/10/07 12:54:49;;;;;;;;;;;;;;;-140.72;0.00;52261.00;5072797;28;19921;-71
2023/10/07 12:57:15;;;;;;;;;;;;;;;-140.72;0.00;52226.50;5070551;28;19946;-77
2023/10/07 12:59:42;;;;;;;;;;;;;;;-140.72;0.00;52287.38;5073388;28;20394;-70
2023/10/07 13:02:09;;;;;;;;;;;;;;;-140.72;0.00;52327.97;5067076;28;19920;-70
2023/10/07 13:04:35;;;;;;;;;;;;;;;-140.72;0.00;52368.53;5070274;28;19943;-70
2023/10/07 13:07:02;;;;;;;;;;;;;;;-140.72;0.00;52407.09;5069611;28;20324;-70
2023/10/07 13:09:31;;;;;;;;;;;;;;;-140.72;10.24;52419.28;5078376;28;19921;-70
2023/10/07 13:11:57;;;;;;;;;;;;;;;-140.72;54.70;52405.06;5074775;28;19920;-72
2023/10/07 13:14:26;;;;;;;;;;;;;;;-140.72;85.48;52451.72;5073693;28;19920;-70